Metar Aviation Weather Data EGNJ

15°C Temp
15°C Dewpoint
% Humidity
Temperature
13 KM/H
8 MPH
7 KTS
100°
Due East

Wind Speed
Light Rain
Showers
Pressure 1001.92 (hPa) - 29.59 (in)
Visibility 1.9 (mi) - 3 (km)

Current Conditions
EGNJ
Metar :EGNJ 300820Z 10007KT 3000 -RA BR BKN004 15/15 Q1002
Fri 30th July 09:20 am

  Metar Aviation API Data Provided by https://www.checkwx.com/ PHP scripts by weather34.com ©2021